Time;durP1;ratioP1;P1;durP2;ratioP2;P2;SDS_P1;SDS_P2;PMS_P1;PMS_P2;Temp;Humidity;BMP_temperature;BMP_pressure;BME280_temperature;BME280_humidity;BME280_pressure;Samples;Min_cycle;Max_cycle;Signal;HPM_P1;HPM_P2
2023/09/17 00:00:37;;;;;;;3.80;3.50;;;;;;;;;;5036467;28;20387;-81
2023/09/17 00:03:03;;;;;;;3.80;3.50;;;;;;;;;;5035282;28;20446;-80
2023/09/17 00:05:29;;;;;;;3.85;3.55;;;;;;;;;;5036510;28;20418;-80
2023/09/17 00:07:55;;;;;;;3.88;3.50;;;;;;;;;;5036336;28;20430;-80
2023/09/17 00:10:22;;;;;;;3.72;3.42;;;;;;;;;;5036447;28;20469;-80
2023/09/17 00:12:48;;;;;;;3.70;3.40;;;;;;;;;;5036151;28;20773;-80
2023/09/17 00:15:15;;;;;;;3.63;3.42;;;;;;;;;;5030892;28;20392;-81
2023/09/17 00:17:41;;;;;;;4.03;3.70;;;;;;;;;;5031774;28;20387;-80
2023/09/17 00:20:10;;;;;;;4.00;3.70;;;;;;;;;;5036495;28;20398;-81
2023/09/17 00:22:37;;;;;;;3.30;3.10;;;;;;;;;;5035826;28;20391;-80
2023/09/17 00:25:04;;;;;;;3.75;3.45;;;;;;;;;;5036322;28;20387;-80
2023/09/17 00:27:30;;;;;;;4.00;3.70;;;;;;;;;;5036494;28;20375;-80
2023/09/17 00:29:56;;;;;;;3.60;3.30;;;;;;;;;;5036025;28;20474;-81
2023/09/17 00:32:22;;;;;;;3.78;3.47;;;;;;;;;;5036333;28;20422;-81
2023/09/17 00:34:48;;;;;;;3.47;3.17;;;;;;;;;;5036248;28;20395;-81
2023/09/17 00:37:14;;;;;;;3.65;3.42;;;;;;;;;;5036711;28;20887;-80
2023/09/17 00:39:40;;;;;;;3.28;3.08;;;;;;;;;;5036586;28;20755;-80
2023/09/17 00:42:07;;;;;;;3.30;3.10;;;;;;;;;;5036293;28;20383;-80
2023/09/17 00:44:33;;;;;;;3.30;3.00;;;;;;;;;;5035869;28;20438;-81
2023/09/17 00:47:02;;;;;;;3.28;3.08;;;;;;;;;;5035675;28;20473;-80
2023/09/17 00:49:28;;;;;;;3.38;3.10;;;;;;;;;;5035972;28;20478;-81
2023/09/17 00:51:54;;;;;;;3.03;2.83;;;;;;;;;;5035754;28;20423;-81
2023/09/17 00:54:22;;;;;;;3.40;3.20;;;;;;;;;;5035563;28;20407;-81
2023/09/17 00:56:50;;;;;;;2.80;2.70;;;;;;;;;;5035775;28;20393;-81
2023/09/17 00:59:16;;;;;;;3.70;3.50;;;;;;;;;;5036224;28;20387;-80
2023/09/17 01:01:43;;;;;;;3.80;3.50;;;;;;;;;;5036043;28;20462;-80
2023/09/17 01:04:09;;;;;;;3.40;3.10;;;;;;;;;;5034570;28;20473;-80
2023/09/17 01:06:36;;;;;;;3.83;3.53;;;;;;;;;;5035592;28;20410;-81
2023/09/17 01:09:02;;;;;;;4.00;3.70;;;;;;;;;;5035383;28;20402;-81
2023/09/17 01:11:28;;;;;;;3.35;3.08;;;;;;;;;;5035119;28;20391;-80
2023/09/17 01:14:10;;;;;;;3.30;3.10;;;;;;;;;;5035496;28;20391;-80
2023/09/17 01:16:36;;;;;;;3.47;3.27;;;;;;;;;;5035413;28;20469;-80
2023/09/17 01:19:03;;;;;;;3.47;3.17;;;;;;;;;;5035659;28;20376;-81
2023/09/17 01:21:36;;;;;;;3.60;3.30;;;;;;;;;;5035600;28;20391;-81
2023/09/17 01:24:08;;;;;;;3.10;2.90;;;;;;;;;;5032302;28;20414;-81
2023/09/17 01:26:35;;;;;;;3.58;3.33;;;;;;;;;;5036036;28;20387;-81
2023/09/17 01:29:05;;;;;;;3.42;3.22;;;;;;;;;;5035441;28;20828;-81
2023/09/17 01:31:31;;;;;;;3.70;3.40;;;;;;;;;;5035241;28;20725;-81
2023/09/17 01:33:57;;;;;;;4.85;3.22;;;;;;;;;;5034889;28;20386;-81
2023/09/17 01:36:33;;;;;;;3.28;3.08;;;;;;;;;;5035095;28;20462;-81
2023/09/17 01:39:05;;;;;;;3.38;3.17;;;;;;;;;;5035372;28;20410;-81
2023/09/17 01:41:33;;;;;;;3.47;3.22;;;;;;;;;;5032272;28;20442;-80
2023/09/17 01:44:00;;;;;;;3.60;3.30;;;;;;;;;;5021373;28;20821;-80
2023/09/17 01:46:26;;;;;;;3.53;3.25;;;;;;;;;;5034899;28;20383;-81
2023/09/17 01:48:53;;;;;;;3.58;3.33;;;;;;;;;;5034727;28;20415;-81
2023/09/17 01:51:19;;;;;;;3.53;3.33;;;;;;;;;;5034969;28;20379;-81
2023/09/17 01:53:45;;;;;;;3.38;3.17;;;;;;;;;;5034807;28;20376;-81
2023/09/17 01:56:13;;;;;;;3.25;3.05;;;;;;;;;;5035266;28;20391;-80
2023/09/17 01:58:39;;;;;;;3.10;2.90;;;;;;;;;;5034996;28;20383;-81
2023/09/17 02:01:05;;;;;;;3.50;3.20;;;;;;;;;;5035181;28;20383;-81
2023/09/17 02:03:31;;;;;;;3.65;3.33;;;;;;;;;;5034914;28;20502;-80
2023/09/17 02:05:58;;;;;;;3.40;3.20;;;;;;;;;;5034664;28;20445;-81
2023/09/17 02:08:24;;;;;;;3.55;3.30;;;;;;;;;;5034641;28;20383;-80
2023/09/17 02:10:50;;;;;;;3.47;3.20;;;;;;;;;;5034592;28;20871;-81
2023/09/17 02:13:16;;;;;;;3.10;2.90;;;;;;;;;;5034948;28;20432;-81
2023/09/17 02:15:42;;;;;;;3.50;3.20;;;;;;;;;;5034663;28;20391;-81
2023/09/17 02:18:10;;;;;;;3.20;3.00;;;;;;;;;;5034675;28;20379;-81
2023/09/17 02:20:39;;;;;;;3.42;3.17;;;;;;;;;;5035106;28;20390;-81
2023/09/17 02:23:06;;;;;;;3.17;2.97;;;;;;;;;;5034365;28;20418;-81
2023/09/17 02:25:32;;;;;;;3.42;3.17;;;;;;;;;;5029965;28;20392;-81
2023/09/17 02:27:58;;;;;;;3.67;3.40;;;;;;;;;;5032832;28;20819;-81
2023/09/17 02:30:24;;;;;;;3.90;3.53;;;;;;;;;;5034685;28;20381;-80
2023/09/17 02:32:50;;;;;;;3.40;3.10;;;;;;;;;;5034688;28;20388;-81
2023/09/17 02:35:16;;;;;;;3.20;3.00;;;;;;;;;;5034632;28;20387;-81
2023/09/17 02:37:43;;;;;;;3.38;3.10;;;;;;;;;;5034221;28;20497;-81
2023/09/17 02:40:09;;;;;;;3.63;3.33;;;;;;;;;;5034206;28;20391;-81
2023/09/17 02:42:36;;;;;;;4.00;3.70;;;;;;;;;;5034018;28;20486;-80
2023/09/17 02:45:03;;;;;;;3.80;3.50;;;;;;;;;;5033958;28;20437;-81
2023/09/17 02:47:29;;;;;;;4.22;3.42;;;;;;;;;;5034321;28;20383;-81
2023/09/17 02:49:55;;;;;;;3.42;3.22;;;;;;;;;;5034396;28;20476;-81
2023/09/17 02:52:21;;;;;;;4.10;3.80;;;;;;;;;;5034663;28;20418;-81
2023/09/17 02:54:47;;;;;;;3.95;3.65;;;;;;;;;;5032740;28;20733;-81
2023/09/17 02:57:13;;;;;;;3.53;3.22;;;;;;;;;;5034099;28;20387;-81
2023/09/17 02:59:39;;;;;;;3.75;3.45;;;;;;;;;;5033672;28;20387;-80
2023/09/17 03:02:05;;;;;;;3.78;3.38;;;;;;;;;;5033993;28;20395;-80
2023/09/17 03:04:31;;;;;;;3.63;3.40;;;;;;;;;;5033534;28;20422;-80
2023/09/17 03:06:58;;;;;;;3.90;3.60;;;;;;;;;;5033217;28;20454;-80
2023/09/17 03:09:24;;;;;;;3.83;3.53;;;;;;;;;;5033923;28;20383;-81
2023/09/17 03:11:50;;;;;;;3.60;3.30;;;;;;;;;;5034044;28;20429;-80
2023/09/17 03:14:16;;;;;;;3.33;3.13;;;;;;;;;;5033998;28;20387;-80
2023/09/17 03:16:42;;;;;;;3.60;3.40;;;;;;;;;;5033963;28;20387;-81
2023/09/17 03:19:08;;;;;;;4.07;3.78;;;;;;;;;;5033961;28;20987;-81
2023/09/17 03:21:40;;;;;;;3.80;3.50;;;;;;;;;;5034192;28;20391;-81
2023/09/17 03:24:06;;;;;;;4.00;3.70;;;;;;;;;;5033146;28;20889;-80
2023/09/17 03:26:32;;;;;;;4.00;3.70;;;;;;;;;;5035004;28;20427;-80
2023/09/17 03:28:58;;;;;;;3.70;3.40;;;;;;;;;;5037008;28;20387;-81
2023/09/17 03:31:24;;;;;;;5.00;4.60;;;;;;;;;;5036951;28;20433;-81
2023/09/17 03:33:50;;;;;;;4.30;4.00;;;;;;;;;;5036653;28;20880;-81
2023/09/17 03:36:16;;;;;;;3.90;3.60;;;;;;;;;;5036733;28;20453;-81
2023/09/17 03:38:42;;;;;;;4.10;3.80;;;;;;;;;;5038713;28;20375;-80
2023/09/17 03:41:08;;;;;;;4.40;4.10;;;;;;;;;;5037207;28;21149;-80
2023/09/17 03:43:34;;;;;;;3.90;3.60;;;;;;;;;;5037855;28;20406;-81
2023/09/17 03:46:03;;;;;;;3.92;3.63;;;;;;;;;;5036499;28;20533;-81
2023/09/17 03:48:29;;;;;;;4.00;3.70;;;;;;;;;;5031220;28;20790;-81
2023/09/17 03:50:56;;;;;;;3.42;3.17;;;;;;;;;;5037395;28;20461;-81
2023/09/17 03:53:22;;;;;;;3.43;3.23;;;;;;;;;;5035696;28;20882;-81
2023/09/17 03:55:48;;;;;;;3.60;3.35;;;;;;;;;;5036551;28;20395;-81
2023/09/17 03:58:15;;;;;;;3.75;3.47;;;;;;;;;;5037016;28;20425;-81
2023/09/17 04:00:43;;;;;;;3.58;3.38;;;;;;;;;;5022533;28;20390;-81
2023/09/17 04:03:09;;;;;;;3.83;3.53;;;;;;;;;;5036480;28;20523;-81
2023/09/17 04:05:35;;;;;;;3.50;3.30;;;;;;;;;;5036682;28;20394;-81
2023/09/17 04:08:01;;;;;;;3.30;3.10;;;;;;;;;;5036292;28;20375;-81
2023/09/17 04:10:27;;;;;;;3.75;3.55;;;;;;;;;;5037345;28;20379;-80
2023/09/17 04:12:53;;;;;;;4.20;3.90;;;;;;;;;;5036352;28;20541;-81
2023/09/17 04:15:20;;;;;;;4.10;3.80;;;;;;;;;;5036583;28;20981;-81
2023/09/17 04:17:46;;;;;;;4.00;3.70;;;;;;;;;;5025006;28;20476;-80
2023/09/17 04:20:18;;;;;;;3.90;3.70;;;;;;;;;;5035644;28;20384;-81
2023/09/17 04:22:46;;;;;;;4.30;3.90;;;;;;;;;;5035850;28;20466;-81
2023/09/17 04:25:13;;;;;;;4.50;4.20;;;;;;;;;;5036250;28;20422;-81
2023/09/17 04:27:42;;;;;;;4.07;3.78;;;;;;;;;;5035843;28;20387;-81
2023/09/17 04:30:08;;;;;;;4.00;3.70;;;;;;;;;;5036280;28;20856;-81
2023/09/17 04:32:38;;;;;;;4.15;3.75;;;;;;;;;;5036234;28;20415;-81
2023/09/17 04:35:05;;;;;;;3.47;3.20;;;;;;;;;;5036209;28;20383;-81
2023/09/17 04:37:32;;;;;;;3.40;3.10;;;;;;;;;;5036338;28;20729;-80
2023/09/17 04:39:58;;;;;;;3.43;3.13;;;;;;;;;;5035667;28;20478;-81
2023/09/17 04:42:25;;;;;;;3.38;3.08;;;;;;;;;;5035916;28;20383;-81
2023/09/17 04:44:51;;;;;;;3.72;3.25;;;;;;;;;;5035360;28;20461;-81
2023/09/17 04:47:16;;;;;;;3.60;3.33;;;;;;;;;;5037125;28;20382;-81
2023/09/17 04:49:42;;;;;;;3.65;3.35;;;;;;;;;;5036613;28;20480;-81
2023/09/17 04:52:08;;;;;;;3.63;3.33;;;;;;;;;;5035369;28;20879;-81
2023/09/17 04:54:34;;;;;;;3.72;3.53;;;;;;;;;;5036072;28;20433;-81
2023/09/17 04:57:00;;;;;;;4.30;3.45;;;;;;;;;;5035713;28;20462;-81
2023/09/17 04:59:28;;;;;;;4.10;3.70;;;;;;;;;;5036312;28;20375;-81
2023/09/17 05:01:54;;;;;;;4.10;3.70;;;;;;;;;;5036485;28;20386;-81
2023/09/17 05:04:21;;;;;;;3.95;3.65;;;;;;;;;;5036331;28;20795;-81
2023/09/17 05:06:47;;;;;;;3.95;3.65;;;;;;;;;;5035344;28;20382;-81
2023/09/17 05:09:13;;;;;;;3.92;3.60;;;;;;;;;;5035979;28;20391;-81
2023/09/17 05:11:40;;;;;;;4.05;3.75;;;;;;;;;;5035898;28;20375;-81
2023/09/17 05:14:06;;;;;;;3.80;3.50;;;;;;;;;;5036113;28;20371;-81
2023/09/17 05:16:32;;;;;;;4.00;3.70;;;;;;;;;;5035745;28;20418;-81
2023/09/17 05:18:58;;;;;;;4.20;3.80;;;;;;;;;;5035055;28;20390;-81
2023/09/17 05:21:24;;;;;;;3.90;3.60;;;;;;;;;;5035373;28;20466;-81
2023/09/17 05:23:50;;;;;;;4.22;3.88;;;;;;;;;;5035031;28;20425;-81
2023/09/17 05:26:16;;;;;;;4.38;4.07;;;;;;;;;;5035331;28;20386;-81
2023/09/17 05:28:44;;;;;;;4.40;4.10;;;;;;;;;;5035649;28;20391;-81
2023/09/17 05:31:10;;;;;;;4.15;3.83;;;;;;;;;;5034867;28;20379;-81
2023/09/17 05:33:36;;;;;;;4.32;4.03;;;;;;;;;;5035338;28;20402;-81
2023/09/17 05:36:02;;;;;;;4.32;4.03;;;;;;;;;;5035418;28;20392;-81
2023/09/17 05:38:28;;;;;;;4.80;4.40;;;;;;;;;;5034920;28;20379;-81
2023/09/17 05:40:55;;;;;;;4.18;3.88;;;;;;;;;;5035276;28;20402;-81
2023/09/17 05:43:21;;;;;;;4.73;3.90;;;;;;;;;;5035180;28;20417;-81
2023/09/17 05:45:47;;;;;;;4.80;4.00;;;;;;;;;;5035266;28;20387;-81
2023/09/17 05:48:13;;;;;;;4.38;4.07;;;;;;;;;;5034046;28;20455;-80
2023/09/17 05:50:39;;;;;;;4.30;4.00;;;;;;;;;;5034627;28;20825;-80
2023/09/17 05:53:05;;;;;;;4.28;3.88;;;;;;;;;;5035082;28;20429;-80
2023/09/17 05:55:31;;;;;;;4.07;3.77;;;;;;;;;;5034650;28;20394;-80
2023/09/17 05:57:57;;;;;;;4.30;4.00;;;;;;;;;;5035281;28;20407;-80
2023/09/17 06:00:23;;;;;;;4.27;3.97;;;;;;;;;;5034773;28;20884;-80
2023/09/17 06:02:49;;;;;;;3.97;3.58;;;;;;;;;;5035056;28;20403;-81
2023/09/17 06:05:15;;;;;;;4.45;4.05;;;;;;;;;;5034749;28;20821;-80
2023/09/17 06:07:41;;;;;;;4.25;3.90;;;;;;;;;;5035135;28;20386;-81
2023/09/17 06:10:07;;;;;;;5.07;4.60;;;;;;;;;;5035236;28;20466;-81
2023/09/17 06:12:33;;;;;;;3.93;3.67;;;;;;;;;;5034635;28;20832;-80
2023/09/17 06:14:59;;;;;;;4.15;3.72;;;;;;;;;;5017116;28;20398;-80
2023/09/17 06:17:25;;;;;;;4.30;4.00;;;;;;;;;;5034444;28;20391;-80
2023/09/17 06:19:51;;;;;;;4.38;4.07;;;;;;;;;;5034753;28;20414;-81
2023/09/17 06:22:17;;;;;;;4.50;4.15;;;;;;;;;;5034373;28;20389;-80
2023/09/17 06:24:44;;;;;;;4.25;3.95;;;;;;;;;;5034285;28;20414;-80
2023/09/17 06:27:10;;;;;;;4.20;3.90;;;;;;;;;;5032021;28;20407;-80
2023/09/17 06:29:36;;;;;;;4.55;4.15;;;;;;;;;;5034607;28;20398;-81
2023/09/17 06:32:03;;;;;;;4.22;3.92;;;;;;;;;;5034316;28;20375;-82
2023/09/17 06:34:29;;;;;;;4.10;3.80;;;;;;;;;;5034229;28;20379;-81
2023/09/17 06:36:55;;;;;;;4.68;4.28;;;;;;;;;;5034215;28;20395;-82
2023/09/17 06:39:21;;;;;;;4.17;3.87;;;;;;;;;;5034573;28;20382;-81
2023/09/17 06:41:47;;;;;;;4.90;4.50;;;;;;;;;;5033399;28;20893;-81
2023/09/17 06:44:13;;;;;;;5.25;4.93;;;;;;;;;;5034239;28;20411;-82
2023/09/17 06:46:39;;;;;;;4.93;4.60;;;;;;;;;;5034416;28;20427;-82
2023/09/17 06:49:05;;;;;;;5.10;4.70;;;;;;;;;;5035054;28;20820;-81
2023/09/17 06:51:31;;;;;;;4.65;4.35;;;;;;;;;;5036989;28;20437;-82
2023/09/17 06:53:57;;;;;;;4.60;4.20;;;;;;;;;;5035825;28;20391;-82
2023/09/17 06:56:23;;;;;;;4.60;4.30;;;;;;;;;;5034695;28;20784;-81
2023/09/17 06:58:50;;;;;;;4.50;4.20;;;;;;;;;;5035573;28;20379;-84
2023/09/17 07:01:15;;;;;;;4.20;3.90;;;;;;;;;;5033675;28;20383;-83
2023/09/17 07:03:41;;;;;;;4.57;4.18;;;;;;;;;;5034059;28;20422;-82
2023/09/17 07:06:07;;;;;;;4.50;4.20;;;;;;;;;;5034168;28;20479;-82
2023/09/17 07:08:33;;;;;;;4.32;4.03;;;;;;;;;;5033929;28;20379;-82
2023/09/17 07:11:00;;;;;;;4.85;4.47;;;;;;;;;;5034458;28;20375;-82
2023/09/17 07:13:26;;;;;;;4.90;4.50;;;;;;;;;;5035482;28;20391;-83
2023/09/17 07:15:52;;;;;;;4.90;4.50;;;;;;;;;;5034973;28;20391;-82
2023/09/17 07:18:18;;;;;;;5.05;4.70;;;;;;;;;;5034781;28;20415;-82
2023/09/17 07:20:44;;;;;;;5.10;4.70;;;;;;;;;;5034463;28;20391;-82
2023/09/17 07:23:10;;;;;;;5.10;4.70;;;;;;;;;;5033544;28;20414;-83
2023/09/17 07:25:36;;;;;;;4.75;4.38;;;;;;;;;;5033563;28;20445;-82
2023/09/17 07:28:07;;;;;;;5.15;4.80;;;;;;;;;;5034618;28;20833;-82
2023/09/17 07:30:36;;;;;;;5.00;4.60;;;;;;;;;;5035195;28;20918;-83
2023/09/17 07:33:02;;;;;;;5.00;4.70;;;;;;;;;;5029604;28;21067;-81
2023/09/17 07:35:29;;;;;;;5.10;4.68;;;;;;;;;;5033460;28;20436;-83
2023/09/17 07:37:55;;;;;;;5.32;4.93;;;;;;;;;;5033479;28;20422;-82
2023/09/17 07:40:21;;;;;;;5.57;5.07;;;;;;;;;;5033009;28;20394;-82
2023/09/17 07:42:47;;;;;;;6.00;5.60;;;;;;;;;;5031350;28;20499;-82
2023/09/17 07:45:13;;;;;;;5.75;5.35;;;;;;;;;;5050133;28;20448;-82
2023/09/17 07:47:40;;;;;;;5.65;5.15;;;;;;;;;;5049818;28;20399;-81
2023/09/17 07:50:06;;;;;;;6.40;5.90;;;;;;;;;;5039919;28;20940;-81
2023/09/17 07:52:32;;;;;;;6.37;5.87;;;;;;;;;;5052721;28;20435;-82
2023/09/17 07:54:58;;;;;;;5.93;5.53;;;;;;;;;;5045685;28;20383;-81
2023/09/17 07:57:24;;;;;;;6.20;5.80;;;;;;;;;;5043535;28;20838;-82
2023/09/17 07:59:52;;;;;;;6.45;5.95;;;;;;;;;;5038495;28;20386;-82
2023/09/17 08:02:18;;;;;;;7.35;6.75;;;;;;;;;;5049860;28;20476;-83
2023/09/17 08:04:44;;;;;;;8.73;6.85;;;;;;;;;;5053360;28;20447;-82
2023/09/17 08:07:11;;;;;;;6.78;6.18;;;;;;;;;;5044101;28;20389;-82
2023/09/17 08:09:38;;;;;;;7.40;6.70;;;;;;;;;;5032598;28;20720;-83
2023/09/17 08:12:05;;;;;;;7.72;7.10;;;;;;;;;;5041010;28;20387;-82
2023/09/17 08:14:31;;;;;;;7.57;6.97;;;;;;;;;;5055422;28;20468;-82
2023/09/17 08:16:57;;;;;;;6.70;6.20;;;;;;;;;;5041268;28;20816;-82
2023/09/17 08:19:23;;;;;;;6.95;6.35;;;;;;;;;;5038597;28;20459;-82
2023/09/17 08:21:49;;;;;;;6.53;5.93;;;;;;;;;;5036128;28;20873;-82
2023/09/17 08:24:17;;;;;;;7.28;6.68;;;;;;;;;;5034244;28;20407;-80
2023/09/17 08:26:43;;;;;;;6.28;5.78;;;;;;;;;;5035942;28;20391;-82
2023/09/17 08:29:09;;;;;;;7.23;6.53;;;;;;;;;;5037200;28;20452;-82
2023/09/17 08:31:36;;;;;;;6.40;5.80;;;;;;;;;;5036520;28;20447;-82
2023/09/17 08:34:03;;;;;;;7.18;6.57;;;;;;;;;;5041717;28;20377;-83
2023/09/17 08:36:29;;;;;;;6.78;6.10;;;;;;;;;;5045034;28;20383;-80
2023/09/17 08:38:55;;;;;;;6.47;5.95;;;;;;;;;;5036010;28;20721;-80
2023/09/17 08:41:24;;;;;;;6.68;6.15;;;;;;;;;;5037164;28;20379;-82
2023/09/17 08:43:52;;;;;;;6.60;6.00;;;;;;;;;;5036409;28;20411;-82
2023/09/17 08:46:19;;;;;;;6.60;6.13;;;;;;;;;;5036429;28;20486;-83
2023/09/17 08:48:45;;;;;;;6.45;5.93;;;;;;;;;;5045143;28;20388;-80
2023/09/17 08:51:13;;;;;;;6.00;5.50;;;;;;;;;;5056430;28;20386;-82
2023/09/17 08:53:59;;;;;;;6.35;5.85;;;;;;;;;;5055558;28;20431;-82
2023/09/17 08:56:27;;;;;;;5.87;5.47;;;;;;;;;;5026310;28;20458;-82
2023/09/17 08:58:53;;;;;;;5.70;5.30;;;;;;;;;;5041866;28;20415;-82
2023/09/17 09:01:24;;;;;;;6.07;5.60;;;;;;;;;;5043209;28;20387;-82
2023/09/17 09:03:52;;;;;;;6.10;5.60;;;;;;;;;;5042424;28;20415;-82
2023/09/17 09:06:20;;;;;;;5.13;4.78;;;;;;;;;;5056770;28;20399;-82
2023/09/17 09:08:48;;;;;;;5.57;5.18;;;;;;;;;;5041746;28;20411;-82
2023/09/17 09:11:14;;;;;;;5.65;5.25;;;;;;;;;;5045598;28;21984;-82
2023/09/17 09:13:41;;;;;;;7.20;6.70;;;;;;;;;;5052547;28;20394;-82
2023/09/17 09:16:07;;;;;;;5.75;5.15;;;;;;;;;;5040708;28;20478;-82
2023/09/17 09:18:34;;;;;;;5.30;4.90;;;;;;;;;;5041632;28;20414;-82
2023/09/17 09:21:00;;;;;;;4.70;4.40;;;;;;;;;;5040942;28;20391;-82
2023/09/17 09:23:26;;;;;;;5.50;5.00;;;;;;;;;;5040621;28;20494;-82
2023/09/17 09:25:52;;;;;;;4.80;4.30;;;;;;;;;;5041838;28;20399;-82
2023/09/17 09:28:18;;;;;;;4.80;4.40;;;;;;;;;;5040503;28;20437;-82
2023/09/17 09:30:45;;;;;;;5.45;4.88;;;;;;;;;;5041520;28;20398;-82
2023/09/17 09:33:12;;;;;;;4.72;4.32;;;;;;;;;;5041460;28;20442;-83
2023/09/17 09:35:38;;;;;;;4.57;4.10;;;;;;;;;;5041009;28;20407;-82
2023/09/17 09:38:04;;;;;;;4.90;4.43;;;;;;;;;;5040783;28;20386;-83
2023/09/17 09:40:34;;;;;;;4.38;4.05;;;;;;;;;;5047257;28;20393;-83
2023/09/17 09:43:00;;;;;;;3.92;3.63;;;;;;;;;;5049111;28;20686;-83
2023/09/17 09:45:28;;;;;;;4.28;3.97;;;;;;;;;;5040629;28;20395;-83
2023/09/17 09:47:54;;;;;;;3.75;3.25;;;;;;;;;;5052847;28;20837;-83
2023/09/17 09:50:27;;;;;;;4.30;4.00;;;;;;;;;;5057075;28;20464;-83
2023/09/17 09:52:54;;;;;;;5.03;4.15;;;;;;;;;;5055908;28;20428;-83
2023/09/17 09:55:24;;;;;;;3.90;3.60;;;;;;;;;;5050758;28;20852;-83
2023/09/17 09:57:50;;;;;;;3.90;3.60;;;;;;;;;;5040880;28;20383;-83
2023/09/17 10:00:20;;;;;;;3.47;3.17;;;;;;;;;;5048987;28;20409;-83
2023/09/17 10:02:46;;;;;;;3.20;2.90;;;;;;;;;;5044224;28;20494;-83
2023/09/17 10:05:16;;;;;;;3.08;2.70;;;;;;;;;;5040322;28;20413;-83
2023/09/17 10:07:43;;;;;;;2.92;2.72;;;;;;;;;;5039182;28;20386;-83
2023/09/17 10:10:11;;;;;;;3.20;2.85;;;;;;;;;;5039419;28;20387;-83
2023/09/17 10:12:37;;;;;;;3.13;2.83;;;;;;;;;;5053360;28;20465;-83
2023/09/17 10:15:04;;;;;;;3.00;2.70;;;;;;;;;;5041336;28;20391;-82
2023/09/17 10:17:32;;;;;;;3.13;2.67;;;;;;;;;;5042105;28;20390;-83
2023/09/17 10:19:59;;;;;;;2.90;2.70;;;;;;;;;;5042278;28;20752;-83
2023/09/17 10:22:26;;;;;;;3.23;2.93;;;;;;;;;;5041392;28;20387;-83
2023/09/17 10:24:52;;;;;;;3.55;2.85;;;;;;;;;;5040894;28;20861;-83
2023/09/17 10:27:27;;;;;;;2.83;2.63;;;;;;;;;;5055815;28;20820;-83
2023/09/17 10:29:54;;;;;;;3.28;2.50;;;;;;;;;;5040494;28;20399;-83
2023/09/17 10:32:21;;;;;;;3.00;2.53;;;;;;;;;;5047115;28;20409;-83
2023/09/17 10:34:47;;;;;;;2.73;2.53;;;;;;;;;;5029124;28;20453;-83
2023/09/17 10:37:15;;;;;;;3.22;2.30;;;;;;;;;;5048545;28;20881;-83
2023/09/17 10:39:42;;;;;;;2.80;2.60;;;;;;;;;;5040983;28;20391;-83
2023/09/17 10:42:09;;;;;;;3.72;2.75;;;;;;;;;;5040320;28;20379;-83
2023/09/17 10:44:38;;;;;;;3.35;2.47;;;;;;;;;;5041026;28;20465;-83
2023/09/17 10:47:08;;;;;;;2.65;2.45;;;;;;;;;;5058101;28;20381;-83
2023/09/17 10:49:36;;;;;;;3.15;2.72;;;;;;;;;;5050933;28;20425;-83
2023/09/17 10:52:02;;;;;;;4.05;2.75;;;;;;;;;;5053162;28;20469;-83
2023/09/17 10:54:28;;;;;;;3.00;2.78;;;;;;;;;;5056721;28;20407;-83
2023/09/17 10:56:55;;;;;;;3.40;2.85;;;;;;;;;;5041075;28;20471;-83
2023/09/17 10:59:22;;;;;;;4.40;2.58;;;;;;;;;;5041184;28;20771;-83
2023/09/17 11:01:49;;;;;;;3.05;2.80;;;;;;;;;;5041491;28;20401;-83
2023/09/17 11:04:17;;;;;;;3.92;2.70;;;;;;;;;;5041967;28;20415;-83
2023/09/17 11:06:44;;;;;;;3.45;3.15;;;;;;;;;;5053845;28;20395;-83
2023/09/17 11:09:11;;;;;;;3.13;2.80;;;;;;;;;;5041122;28;20390;-83
2023/09/17 11:11:37;;;;;;;2.72;2.53;;;;;;;;;;5040985;28;20393;-83
2023/09/17 11:14:04;;;;;;;3.53;3.23;;;;;;;;;;5042340;28;20437;-83
2023/09/17 11:16:31;;;;;;;2.70;2.50;;;;;;;;;;5042757;28;20375;-83
2023/09/17 11:19:14;;;;;;;2.38;2.13;;;;;;;;;;5040990;28;20397;-83
2023/09/17 11:21:44;;;;;;;2.83;2.60;;;;;;;;;;5026052;28;20470;-83
2023/09/17 11:24:11;;;;;;;2.25;2.05;;;;;;;;;;5040348;28;20447;-83
2023/09/17 11:26:37;;;;;;;2.80;2.20;;;;;;;;;;5041027;28;20395;-83
2023/09/17 11:29:06;;;;;;;2.60;1.92;;;;;;;;;;5040951;28;20415;-83
2023/09/17 11:31:34;;;;;;;2.15;1.80;;;;;;;;;;5040886;28;20409;-83
2023/09/17 11:34:00;;;;;;;2.47;1.70;;;;;;;;;;5039908;28;20402;-83
2023/09/17 11:36:26;;;;;;;2.72;1.90;;;;;;;;;;5041273;28;20387;-82
2023/09/17 11:38:52;;;;;;;2.45;2.08;;;;;;;;;;5037997;28;20451;-83
2023/09/17 11:41:26;;;;;;;3.00;1.67;;;;;;;;;;5042790;28;20394;-82
2023/09/17 11:43:52;;;;;;;2.30;1.80;;;;;;;;;;5027901;28;20497;-82
2023/09/17 11:46:18;;;;;;;2.93;1.80;;;;;;;;;;5031877;28;20403;-83
2023/09/17 11:48:44;;;;;;;3.30;1.70;;;;;;;;;;5043909;28;20398;-83
2023/09/17 11:51:22;;;;;;;1.92;1.67;;;;;;;;;;5049023;28;20854;-83
2023/09/17 11:54:02;;;;;;;1.60;1.50;;;;;;;;;;5050778;28;20390;-83
2023/09/17 11:56:29;;;;;;;2.83;2.00;;;;;;;;;;5027849;28;20378;-83
2023/09/17 11:59:15;;;;;;;2.85;1.77;;;;;;;;;;5057864;28;20397;-83
2023/09/17 12:01:49;;;;;;;2.00;1.63;;;;;;;;;;5031304;28;20391;-83
2023/09/17 12:04:15;;;;;;;2.10;1.90;;;;;;;;;;5056797;28;20416;-83
2023/09/17 12:06:46;;;;;;;3.27;1.70;;;;;;;;;;5044140;28;20429;-83
2023/09/17 12:09:23;;;;;;;3.47;2.15;;;;;;;;;;5062535;28;20401;-83
2023/09/17 12:11:49;;;;;;;2.30;1.80;;;;;;;;;;5032395;28;20872;-85
2023/09/17 12:14:15;;;;;;;2.22;2.08;;;;;;;;;;5044262;28;20382;-83
2023/09/17 12:16:42;;;;;;;2.60;2.40;;;;;;;;;;5044251;28;20390;-83
2023/09/17 12:19:08;;;;;;;2.50;2.30;;;;;;;;;;5043395;28;20379;-83
2023/09/17 12:21:40;;;;;;;4.18;2.22;;;;;;;;;;5043152;28;20397;-82
2023/09/17 12:24:09;;;;;;;2.38;2.17;;;;;;;;;;5043389;28;20403;-83
2023/09/17 12:27:08;;;;;;;2.58;2.38;;;;;;;;;;5044200;28;20401;-85
2023/09/17 12:29:38;;;;;;;2.22;2.10;;;;;;;;;;5042488;28;20391;-85
2023/09/17 12:32:05;;;;;;;2.90;1.90;;;;;;;;;;5030935;28;20466;-83
2023/09/17 12:34:31;;;;;;;2.15;1.95;;;;;;;;;;5054243;28;20392;-85
2023/09/17 12:36:57;;;;;;;2.13;1.92;;;;;;;;;;5049040;28;20378;-85
2023/09/17 12:39:23;;;;;;;2.70;2.17;;;;;;;;;;5043926;28;20522;-84
2023/09/17 12:41:49;;;;;;;1.95;1.80;;;;;;;;;;5056401;28;20459;-85
2023/09/17 12:44:15;;;;;;;2.05;1.80;;;;;;;;;;5042120;28;20938;-85
2023/09/17 12:46:42;;;;;;;1.92;1.60;;;;;;;;;;5056383;28;20453;-84
2023/09/17 12:49:08;;;;;;;2.22;1.60;;;;;;;;;;5041461;28;20470;-85
2023/09/17 12:51:35;;;;;;;2.95;1.40;;;;;;;;;;5050776;28;20465;-85
2023/09/17 12:54:01;;;;;;;2.17;1.70;;;;;;;;;;5046879;28;20473;-85
2023/09/17 12:56:30;;;;;;;1.73;1.60;;;;;;;;;;5042641;28;20483;-85
2023/09/17 12:59:00;;;;;;;1.50;1.38;;;;;;;;;;5055443;28;20887;-86
2023/09/17 13:01:30;;;;;;;1.60;1.50;;;;;;;;;;5040411;28;20482;-85
2023/09/17 13:04:03;;;;;;;1.98;1.25;;;;;;;;;;5041410;28;20440;-85
2023/09/17 13:06:34;;;;;;;1.97;1.30;;;;;;;;;;5056693;28;20399;-85
2023/09/17 13:09:02;;;;;;;1.53;1.40;;;;;;;;;;5054547;28;20437;-85
2023/09/17 13:11:28;;;;;;;3.03;1.30;;;;;;;;;;5055672;28;20391;-85
2023/09/17 13:13:54;;;;;;;2.10;1.23;;;;;;;;;;5056154;28;20385;-86
2023/09/17 13:16:21;;;;;;;1.42;1.20;;;;;;;;;;5041429;28;20430;-84
2023/09/17 13:18:47;;;;;;;2.20;1.30;;;;;;;;;;5042400;28;20395;-84
2023/09/17 13:21:14;;;;;;;3.10;1.23;;;;;;;;;;5041877;28;20419;-84
2023/09/17 13:23:40;;;;;;;2.20;1.30;;;;;;;;;;5041930;28;20407;-84
2023/09/17 13:26:07;;;;;;;1.30;1.05;;;;;;;;;;5041766;28;20391;-84
2023/09/17 13:28:34;;;;;;;1.70;1.05;;;;;;;;;;5041524;28;20394;-84
2023/09/17 13:31:01;;;;;;;1.50;1.13;;;;;;;;;;5041609;28;20709;-84
2023/09/17 13:33:27;;;;;;;2.05;1.30;;;;;;;;;;5041061;28;20379;-84
2023/09/17 13:35:53;;;;;;;2.30;1.25;;;;;;;;;;5042131;28;20397;-84
2023/09/17 13:38:20;;;;;;;1.63;1.20;;;;;;;;;;5041298;28;20728;-84
2023/09/17 13:40:46;;;;;;;2.60;1.38;;;;;;;;;;5041401;28;20422;-83
2023/09/17 13:43:12;;;;;;;3.67;1.30;;;;;;;;;;5050411;28;20422;-85
2023/09/17 13:45:48;;;;;;;3.05;1.30;;;;;;;;;;5046555;28;20425;-83
2023/09/17 13:48:14;;;;;;;1.73;1.35;;;;;;;;;;5040695;28;20419;-83
2023/09/17 13:50:40;;;;;;;2.20;1.53;;;;;;;;;;5056776;28;20438;-82
2023/09/17 13:53:06;;;;;;;1.20;1.10;;;;;;;;;;5043236;28;20390;-82
2023/09/17 13:55:33;;;;;;;1.80;1.60;;;;;;;;;;5041030;28;20383;-85
2023/09/17 13:58:02;;;;;;;1.50;1.23;;;;;;;;;;5041984;28;20391;-83
2023/09/17 14:00:28;;;;;;;1.70;1.27;;;;;;;;;;5041662;28;20413;-83
2023/09/17 14:02:54;;;;;;;1.70;1.03;;;;;;;;;;5023856;28;20407;-84
2023/09/17 14:05:20;;;;;;;1.77;1.35;;;;;;;;;;5041449;28;20403;-84
2023/09/17 14:07:47;;;;;;;1.98;1.10;;;;;;;;;;5023100;28;20387;-84
2023/09/17 14:10:13;;;;;;;2.22;1.40;;;;;;;;;;5040436;28;20469;-85
2023/09/17 14:12:39;;;;;;;2.65;1.33;;;;;;;;;;5041307;28;20386;-83
2023/09/17 14:15:05;;;;;;;1.90;1.20;;;;;;;;;;5045629;28;20383;-83
2023/09/17 14:17:31;;;;;;;1.38;1.20;;;;;;;;;;5042840;28;20402;-85
2023/09/17 14:19:57;;;;;;;1.77;1.13;;;;;;;;;;5056480;28;20502;-85
2023/09/17 14:22:23;;;;;;;1.77;1.23;;;;;;;;;;5038419;28;20410;-85
2023/09/17 14:24:49;;;;;;;2.80;1.20;;;;;;;;;;5038997;28;20428;-84
2023/09/17 14:27:15;;;;;;;1.80;1.20;;;;;;;;;;5056906;28;20399;-84
2023/09/17 14:29:44;;;;;;;1.40;1.20;;;;;;;;;;5042668;28;20434;-84
2023/09/17 14:32:10;;;;;;;1.50;1.20;;;;;;;;;;5055099;28;20382;-83
2023/09/17 14:34:36;;;;;;;2.53;1.80;;;;;;;;;;5056627;28;20845;-85
2023/09/17 14:37:02;;;;;;;2.00;1.42;;;;;;;;;;5040925;28;20741;-83
2023/09/17 14:39:28;;;;;;;2.38;1.23;;;;;;;;;;5048223;28;20396;-83
2023/09/17 14:41:54;;;;;;;1.30;1.10;;;;;;;;;;5059760;28;20751;-83